sensor_id;sensor_type;location;lat;lon;timestamp;pressure;altitude;pressure_sealevel;temperature
24278;BMP280;12394;42.692;23.314;2022-12-10T00:00:53;94352.50;;;10.27
24278;BMP280;12394;42.692;23.314;2022-12-10T00:03:18;94349.94;;;10.23
24278;BMP280;12394;42.692;23.314;2022-12-10T00:05:43;94359.88;;;10.32
24278;BMP280;12394;42.692;23.314;2022-12-10T00:08:09;94353.97;;;10.27
24278;BMP280;12394;42.692;23.314;2022-12-10T00:10:38;94359.41;;;10.37
24278;BMP280;12394;42.692;23.314;2022-12-10T00:13:04;94368.91;;;10.50
24278;BMP280;12394;42.692;23.314;2022-12-10T00:15:29;94377.34;;;10.38
24278;BMP280;12394;42.692;23.314;2022-12-10T00:17:54;94363.97;;;10.33
24278;BMP280;12394;42.692;23.314;2022-12-10T00:20:20;94364.09;;;10.25
24278;BMP280;12394;42.692;23.314;2022-12-10T00:22:45;94354.38;;;10.26
24278;BMP280;12394;42.692;23.314;2022-12-10T00:25:11;94349.59;;;10.21
24278;BMP280;12394;42.692;23.314;2022-12-10T00:27:36;94360.13;;;10.17
24278;BMP280;12394;42.692;23.314;2022-12-10T00:30:02;94329.88;;;10.16
24278;BMP280;12394;42.692;23.314;2022-12-10T00:32:27;94350.72;;;10.20
24278;BMP280;12394;42.692;23.314;2022-12-10T00:34:52;94364.03;;;10.29
24278;BMP280;12394;42.692;23.314;2022-12-10T00:37:18;94347.38;;;10.19
24278;BMP280;12394;42.692;23.314;2022-12-10T00:39:43;94330.63;;;10.13
24278;BMP280;12394;42.692;23.314;2022-12-10T00:42:08;94343.63;;;10.20
24278;BMP280;12394;42.692;23.314;2022-12-10T00:44:34;94339.72;;;10.05
24278;BMP280;12394;42.692;23.314;2022-12-10T00:46:59;94358.16;;;10.45
24278;BMP280;12394;42.692;23.314;2022-12-10T00:49:24;94349.91;;;10.27
24278;BMP280;12394;42.692;23.314;2022-12-10T00:51:50;94341.47;;;10.15
24278;BMP280;12394;42.692;23.314;2022-12-10T00:54:15;94349.66;;;10.14
24278;BMP280;12394;42.692;23.314;2022-12-10T00:56:41;94355.97;;;10.20
24278;BMP280;12394;42.692;23.314;2022-12-10T00:59:07;94359.25;;;10.24
24278;BMP280;12394;42.692;23.314;2022-12-10T01:01:37;94359.16;;;10.31
24278;BMP280;12394;42.692;23.314;2022-12-10T01:04:06;94353.81;;;10.38
24278;BMP280;12394;42.692;23.314;2022-12-10T01:06:35;94345.72;;;10.29
24278;BMP280;12394;42.692;23.314;2022-12-10T01:09:05;94344.59;;;10.30
24278;BMP280;12394;42.692;23.314;2022-12-10T01:11:35;94364.25;;;10.38
24278;BMP280;12394;42.692;23.314;2022-12-10T01:14:02;94356.97;;;10.49
24278;BMP280;12394;42.692;23.314;2022-12-10T01:16:28;94354.72;;;10.51
24278;BMP280;12394;42.692;23.314;2022-12-10T01:18:57;94352.69;;;10.59
24278;BMP280;12394;42.692;23.314;2022-12-10T01:21:24;94341.41;;;10.65
24278;BMP280;12394;42.692;23.314;2022-12-10T01:23:51;94333.19;;;10.63
24278;BMP280;12394;42.692;23.314;2022-12-10T01:26:21;94345.53;;;10.63
24278;BMP280;12394;42.692;23.314;2022-12-10T01:28:47;94333.34;;;10.56
24278;BMP280;12394;42.692;23.314;2022-12-10T01:31:21;94342.44;;;10.48
24278;BMP280;12394;42.692;23.314;2022-12-10T01:33:47;94339.97;;;10.61
24278;BMP280;12394;42.692;23.314;2022-12-10T01:36:24;94329.28;;;10.52
24278;BMP280;12394;42.692;23.314;2022-12-10T01:38:50;94341.84;;;10.60
24278;BMP280;12394;42.692;23.314;2022-12-10T01:41:24;94316.06;;;10.62
24278;BMP280;12394;42.692;23.314;2022-12-10T01:46:25;94315.66;;;10.41
24278;BMP280;12394;42.692;23.314;2022-12-10T01:48:51;94346.28;;;10.63
24278;BMP280;12394;42.692;23.314;2022-12-10T01:51:17;94330.78;;;10.73
24278;BMP280;12394;42.692;23.314;2022-12-10T01:53:44;94337.66;;;10.66
24278;BMP280;12394;42.692;23.314;2022-12-10T01:56:10;94324.34;;;10.57
24278;BMP280;12394;42.692;23.314;2022-12-10T01:58:36;94336.63;;;10.60
24278;BMP280;12394;42.692;23.314;2022-12-10T02:01:10;94336.97;;;10.62
24278;BMP280;12394;42.692;23.314;2022-12-10T02:09:31;94325.25;;;10.47
24278;BMP280;12394;42.692;23.314;2022-12-10T02:12:16;94318.56;;;10.46
24278;BMP280;12394;42.692;23.314;2022-12-10T02:14:56;94322.41;;;10.15
24278;BMP280;12394;42.692;23.314;2022-12-10T02:17:36;94348.91;;;10.40
24278;BMP280;12394;42.692;23.314;2022-12-10T02:20:15;94329.81;;;10.43
24278;BMP280;12394;42.692;23.314;2022-12-10T02:22:46;94311.75;;;10.29
24278;BMP280;12394;42.692;23.314;2022-12-10T02:25:15;94313.38;;;10.43
24278;BMP280;12394;42.692;23.314;2022-12-10T02:27:52;94301.44;;;10.42
24278;BMP280;12394;42.692;23.314;2022-12-10T02:30:19;94297.75;;;10.39
24278;BMP280;12394;42.692;23.314;2022-12-10T02:32:46;94303.25;;;10.45
24278;BMP280;12394;42.692;23.314;2022-12-10T02:35:18;94306.56;;;10.49
24278;BMP280;12394;42.692;23.314;2022-12-10T02:37:49;94305.03;;;10.51
24278;BMP280;12394;42.692;23.314;2022-12-10T02:40:19;94292.91;;;10.61
24278;BMP280;12394;42.692;23.314;2022-12-10T02:42:48;94303.78;;;10.79
24278;BMP280;12394;42.692;23.314;2022-12-10T02:45:15;94299.63;;;10.82
24278;BMP280;12394;42.692;23.314;2022-12-10T02:47:41;94292.44;;;10.66
24278;BMP280;12394;42.692;23.314;2022-12-10T02:50:07;94306.38;;;10.59
24278;BMP280;12394;42.692;23.314;2022-12-10T02:52:34;94294.41;;;10.58
24278;BMP280;12394;42.692;23.314;2022-12-10T02:55:00;94288.88;;;10.56
24278;BMP280;12394;42.692;23.314;2022-12-10T03:00:00;94291.56;;;10.73
24278;BMP280;12394;42.692;23.314;2022-12-10T03:08:45;94290.88;;;10.68
24278;BMP280;12394;42.692;23.314;2022-12-10T03:11:13;94303.22;;;10.68
24278;BMP280;12394;42.692;23.314;2022-12-10T03:14:00;94286.84;;;10.64
24278;BMP280;12394;42.692;23.314;2022-12-10T03:16:30;94286.53;;;10.82
24278;BMP280;12394;42.692;23.314;2022-12-10T03:19:01;94285.06;;;10.81
24278;BMP280;12394;42.692;23.314;2022-12-10T03:21:29;94284.72;;;10.79
24278;BMP280;12394;42.692;23.314;2022-12-10T03:24:02;94275.13;;;10.72
24278;BMP280;12394;42.692;23.314;2022-12-10T03:26:28;94287.53;;;10.88
24278;BMP280;12394;42.692;23.314;2022-12-10T03:29:01;94283.44;;;10.87
24278;BMP280;12394;42.692;23.314;2022-12-10T03:31:29;94285.94;;;10.94
24278;BMP280;12394;42.692;23.314;2022-12-10T03:33:56;94282.16;;;10.95
24278;BMP280;12394;42.692;23.314;2022-12-10T03:36:27;94280.81;;;11.06
24278;BMP280;12394;42.692;23.314;2022-12-10T03:38:54;94273.53;;;10.98
24278;BMP280;12394;42.692;23.314;2022-12-10T03:41:19;94260.75;;;11.00
24278;BMP280;12394;42.692;23.314;2022-12-10T03:43:54;94285.53;;;10.95
24278;BMP280;12394;42.692;23.314;2022-12-10T03:46:20;94283.53;;;11.03
24278;BMP280;12394;42.692;23.314;2022-12-10T03:49:06;94272.09;;;11.13
24278;BMP280;12394;42.692;23.314;2022-12-10T03:51:32;94268.00;;;11.12
24278;BMP280;12394;42.692;23.314;2022-12-10T03:53:57;94251.66;;;11.08
24278;BMP280;12394;42.692;23.314;2022-12-10T03:56:31;94254.38;;;11.01
24278;BMP280;12394;42.692;23.314;2022-12-10T03:58:56;94275.19;;;11.08
24278;BMP280;12394;42.692;23.314;2022-12-10T04:01:22;94257.16;;;10.94
24278;BMP280;12394;42.692;23.314;2022-12-10T04:03:47;94269.97;;;10.88
24278;BMP280;12394;42.692;23.314;2022-12-10T04:06:32;94262.31;;;10.78
24278;BMP280;12394;42.692;23.314;2022-12-10T04:08:58;94260.38;;;10.82
24278;BMP280;12394;42.692;23.314;2022-12-10T04:11:23;94278.88;;;10.91
24278;BMP280;12394;42.692;23.314;2022-12-10T04:13:50;94246.75;;;10.90
24278;BMP280;12394;42.692;23.314;2022-12-10T04:16:35;94262.25;;;11.01
24278;BMP280;12394;42.692;23.314;2022-12-10T04:19:07;94289.81;;;11.05
24278;BMP280;12394;42.692;23.314;2022-12-10T04:21:34;94287.19;;;11.05
24278;BMP280;12394;42.692;23.314;2022-12-10T04:24:21;94271.66;;;10.98
24278;BMP280;12394;42.692;23.314;2022-12-10T04:27:08;94275.31;;;11.01
24278;BMP280;12394;42.692;23.314;2022-12-10T04:29:35;94272.44;;;10.95
24278;BMP280;12394;42.692;23.314;2022-12-10T04:32:03;94270.81;;;10.82
24278;BMP280;12394;42.692;23.314;2022-12-10T04:34:28;94289.22;;;10.98
24278;BMP280;12394;42.692;23.314;2022-12-10T04:37:09;94281.19;;;10.89
24278;BMP280;12394;42.692;23.314;2022-12-10T04:39:39;94276.53;;;10.77
24278;BMP280;12394;42.692;23.314;2022-12-10T04:42:05;94272.44;;;10.95
24278;BMP280;12394;42.692;23.314;2022-12-10T04:44:31;94266.06;;;10.96
24278;BMP280;12394;42.692;23.314;2022-12-10T04:47:08;94268.59;;;11.00
24278;BMP280;12394;42.692;23.314;2022-12-10T04:49:34;94272.13;;;10.93
24278;BMP280;12394;42.692;23.314;2022-12-10T04:52:00;94275.88;;;10.92
24278;BMP280;12394;42.692;23.314;2022-12-10T04:54:26;94289.75;;;11.09
24278;BMP280;12394;42.692;23.314;2022-12-10T04:56:51;94282.53;;;11.33
24278;BMP280;12394;42.692;23.314;2022-12-10T04:59:19;94278.47;;;11.12
24278;BMP280;12394;42.692;23.314;2022-12-10T05:01:45;94276.63;;;10.93
24278;BMP280;12394;42.692;23.314;2022-12-10T05:04:13;94285.47;;;10.99
24278;BMP280;12394;42.692;23.314;2022-12-10T05:07:01;94282.03;;;11.02
24278;BMP280;12394;42.692;23.314;2022-12-10T05:09:27;94275.94;;;10.89
24278;BMP280;12394;42.692;23.314;2022-12-10T05:11:52;94289.88;;;11.02
24278;BMP280;12394;42.692;23.314;2022-12-10T05:14:18;94266.66;;;11.04
24278;BMP280;12394;42.692;23.314;2022-12-10T05:16:43;94274.03;;;11.09
24278;BMP280;12394;42.692;23.314;2022-12-10T05:19:24;94258.13;;;11.00
24278;BMP280;12394;42.692;23.314;2022-12-10T05:21:58;94247.47;;;10.91
24278;BMP280;12394;42.692;23.314;2022-12-10T05:24:42;94263.47;;;11.32
24278;BMP280;12394;42.692;23.314;2022-12-10T05:27:07;94259.59;;;11.21
24278;BMP280;12394;42.692;23.314;2022-12-10T05:29:33;94250.16;;;11.07
24278;BMP280;12394;42.692;23.314;2022-12-10T05:31:59;94246.03;;;10.90
24278;BMP280;12394;42.692;23.314;2022-12-10T05:34:24;94263.53;;;10.93
24278;BMP280;12394;42.692;23.314;2022-12-10T05:36:50;94271.03;;;10.91
24278;BMP280;12394;42.692;23.314;2022-12-10T05:39:15;94274.47;;;10.88
24278;BMP280;12394;42.692;23.314;2022-12-10T05:41:41;94268.84;;;10.89
24278;BMP280;12394;42.692;23.314;2022-12-10T05:44:07;94280.25;;;10.99
24278;BMP280;12394;42.692;23.314;2022-12-10T05:46:33;94288.88;;;11.15
24278;BMP280;12394;42.692;23.314;2022-12-10T05:49:00;94284.59;;;11.05
24278;BMP280;12394;42.692;23.314;2022-12-10T05:51:29;94280.28;;;10.95
24278;BMP280;12394;42.692;23.314;2022-12-10T05:53:55;94276.13;;;10.98
24278;BMP280;12394;42.692;23.314;2022-12-10T05:56:22;94288.22;;;10.92
24278;BMP280;12394;42.692;23.314;2022-12-10T05:58:50;94284.13;;;10.91
24278;BMP280;12394;42.692;23.314;2022-12-10T06:01:21;94276.94;;;10.95
24278;BMP280;12394;42.692;23.314;2022-12-10T06:03:47;94277.81;;;11.08
24278;BMP280;12394;42.692;23.314;2022-12-10T06:06:20;94290.47;;;11.09
24278;BMP280;12394;42.692;23.314;2022-12-10T06:08:46;94288.31;;;11.24
24278;BMP280;12394;42.692;23.314;2022-12-10T06:11:11;94297.88;;;11.14
24278;BMP280;12394;42.692;23.314;2022-12-10T06:13:37;94301.22;;;11.15
24278;BMP280;12394;42.692;23.314;2022-12-10T06:16:11;94299.91;;;11.07
24278;BMP280;12394;42.692;23.314;2022-12-10T06:18:37;94295.59;;;11.17
24278;BMP280;12394;42.692;23.314;2022-12-10T06:21:11;94298.63;;;11.31
24278;BMP280;12394;42.692;23.314;2022-12-10T06:23:38;94289.00;;;11.28
24278;BMP280;12394;42.692;23.314;2022-12-10T06:26:13;94296.72;;;11.35
24278;BMP280;12394;42.692;23.314;2022-12-10T06:28:39;94287.28;;;11.38
24278;BMP280;12394;42.692;23.314;2022-12-10T06:31:05;94284.63;;;11.57
24278;BMP280;12394;42.692;23.314;2022-12-10T06:33:30;94278.88;;;11.46
24278;BMP280;12394;42.692;23.314;2022-12-10T06:35:56;94268.56;;;11.39
24278;BMP280;12394;42.692;23.314;2022-12-10T06:38:21;94258.19;;;11.52
24278;BMP280;12394;42.692;23.314;2022-12-10T06:40:47;94249.25;;;11.49
24278;BMP280;12394;42.692;23.314;2022-12-10T06:43:12;94267.41;;;11.40
24278;BMP280;12394;42.692;23.314;2022-12-10T06:45:39;94279.66;;;11.27
24278;BMP280;12394;42.692;23.314;2022-12-10T06:48:05;94290.53;;;11.26
24278;BMP280;12394;42.692;23.314;2022-12-10T06:50:30;94291.59;;;11.28
24278;BMP280;12394;42.692;23.314;2022-12-10T06:52:55;94291.47;;;11.35
24278;BMP280;12394;42.692;23.314;2022-12-10T06:55:21;94292.13;;;11.39
24278;BMP280;12394;42.692;23.314;2022-12-10T06:57:46;94322.75;;;11.42
24278;BMP280;12394;42.692;23.314;2022-12-10T07:00:12;94322.50;;;11.73
24278;BMP280;12394;42.692;23.314;2022-12-10T07:02:38;94312.84;;;11.86
24278;BMP280;12394;42.692;23.314;2022-12-10T07:05:05;94292.22;;;11.88
24278;BMP280;12394;42.692;23.314;2022-12-10T07:07:30;94295.16;;;11.74
24278;BMP280;12394;42.692;23.314;2022-12-10T07:09:56;94304.16;;;11.73
24278;BMP280;12394;42.692;23.314;2022-12-10T07:12:21;94303.47;;;11.69
24278;BMP280;12394;42.692;23.314;2022-12-10T07:14:46;94307.44;;;11.77
24278;BMP280;12394;42.692;23.314;2022-12-10T07:17:12;94297.81;;;11.70
24278;BMP280;12394;42.692;23.314;2022-12-10T07:19:39;94292.44;;;11.77
24278;BMP280;12394;42.692;23.314;2022-12-10T07:22:04;94286.81;;;11.79
24278;BMP280;12394;42.692;23.314;2022-12-10T07:24:29;94288.59;;;11.82
24278;BMP280;12394;42.692;23.314;2022-12-10T07:26:55;94274.69;;;11.85
24278;BMP280;12394;42.692;23.314;2022-12-10T07:29:24;94273.28;;;11.96
24278;BMP280;12394;42.692;23.314;2022-12-10T07:31:51;94265.34;;;12.00
24278;BMP280;12394;42.692;23.314;2022-12-10T07:34:17;94269.13;;;12.15
24278;BMP280;12394;42.692;23.314;2022-12-10T07:36:43;94261.09;;;12.06
24278;BMP280;12394;42.692;23.314;2022-12-10T07:39:10;94272.63;;;12.09
24278;BMP280;12394;42.692;23.314;2022-12-10T07:41:42;94266.66;;;12.08
24278;BMP280;12394;42.692;23.314;2022-12-10T07:44:11;94263.72;;;12.06
24278;BMP280;12394;42.692;23.314;2022-12-10T07:46:37;94261.72;;;12.26
24278;BMP280;12394;42.692;23.314;2022-12-10T07:49:03;94253.38;;;12.15
24278;BMP280;12394;42.692;23.314;2022-12-10T07:51:29;94281.72;;;12.65
24278;BMP280;12394;42.692;23.314;2022-12-10T07:53:55;94295.59;;;12.66
24278;BMP280;12394;42.692;23.314;2022-12-10T07:56:22;94236.94;;;12.43
24278;BMP280;12394;42.692;23.314;2022-12-10T07:58:48;94267.72;;;12.56
24278;BMP280;12394;42.692;23.314;2022-12-10T08:01:22;94227.03;;;12.35
24278;BMP280;12394;42.692;23.314;2022-12-10T08:03:49;94258.38;;;12.55
24278;BMP280;12394;42.692;23.314;2022-12-10T08:06:16;94253.56;;;12.53
24278;BMP280;12394;42.692;23.314;2022-12-10T08:08:42;94245.25;;;12.55
24278;BMP280;12394;42.692;23.314;2022-12-10T08:11:08;94243.59;;;12.61
24278;BMP280;12394;42.692;23.314;2022-12-10T08:13:34;94245.25;;;12.55
24278;BMP280;12394;42.692;23.314;2022-12-10T08:16:06;94237.34;;;12.42
24278;BMP280;12394;42.692;23.314;2022-12-10T08:18:33;94249.97;;;12.47
24278;BMP280;12394;42.692;23.314;2022-12-10T08:21:04;94248.94;;;12.57
24278;BMP280;12394;42.692;23.314;2022-12-10T08:23:29;94245.00;;;12.65
24278;BMP280;12394;42.692;23.314;2022-12-10T08:25:55;94248.53;;;12.59
24278;BMP280;12394;42.692;23.314;2022-12-10T08:28:25;94249.31;;;12.72
24278;BMP280;12394;42.692;23.314;2022-12-10T08:30:50;94238.63;;;12.79
24278;BMP280;12394;42.692;23.314;2022-12-10T08:33:15;94245.84;;;12.75
24278;BMP280;12394;42.692;23.314;2022-12-10T08:35:42;94240.91;;;12.77
24278;BMP280;12394;42.692;23.314;2022-12-10T08:38:08;94233.59;;;12.84
24278;BMP280;12394;42.692;23.314;2022-12-10T08:40:33;94229.34;;;13.03
24278;BMP280;12394;42.692;23.314;2022-12-10T08:42:59;94219.44;;;12.95
24278;BMP280;12394;42.692;23.314;2022-12-10T08:45:24;94225.75;;;12.97
24278;BMP280;12394;42.692;23.314;2022-12-10T08:47:49;94228.66;;;12.86
24278;BMP280;12394;42.692;23.314;2022-12-10T08:50:15;94215.34;;;13.06
24278;BMP280;12394;42.692;23.314;2022-12-10T08:52:40;94216.03;;;13.23
24278;BMP280;12394;42.692;23.314;2022-12-10T08:55:06;94214.03;;;13.40
24278;BMP280;12394;42.692;23.314;2022-12-10T08:57:31;94206.81;;;14.03
24278;BMP280;12394;42.692;23.314;2022-12-10T08:59:57;94217.47;;;14.56
24278;BMP280;12394;42.692;23.314;2022-12-10T09:02:22;94213.94;;;14.72
24278;BMP280;12394;42.692;23.314;2022-12-10T09:04:50;94210.00;;;14.98
24278;BMP280;12394;42.692;23.314;2022-12-10T09:07:36;94202.38;;;15.00
24278;BMP280;12394;42.692;23.314;2022-12-10T09:10:03;94205.59;;;15.26
24278;BMP280;12394;42.692;23.314;2022-12-10T09:12:29;94200.56;;;15.19
24278;BMP280;12394;42.692;23.314;2022-12-10T09:14:54;94190.97;;;15.34
24278;BMP280;12394;42.692;23.314;2022-12-10T09:17:20;94203.59;;;15.39
24278;BMP280;12394;42.692;23.314;2022-12-10T09:19:46;94204.88;;;15.34
24278;BMP280;12394;42.692;23.314;2022-12-10T09:22:11;94208.09;;;15.69
24278;BMP280;12394;42.692;23.314;2022-12-10T09:24:37;94198.56;;;15.72
24278;BMP280;12394;42.692;23.314;2022-12-10T09:27:02;94183.94;;;15.80
24278;BMP280;12394;42.692;23.314;2022-12-10T09:29:28;94184.09;;;15.85
24278;BMP280;12394;42.692;23.314;2022-12-10T09:31:53;94196.53;;;17.36
24278;BMP280;12394;42.692;23.314;2022-12-10T09:34:20;94187.78;;;17.63
24278;BMP280;12394;42.692;23.314;2022-12-10T09:36:47;94186.75;;;18.32
24278;BMP280;12394;42.692;23.314;2022-12-10T09:39:13;94185.78;;;19.61
24278;BMP280;12394;42.692;23.314;2022-12-10T09:47:05;94154.94;;;19.84
24278;BMP280;12394;42.692;23.314;2022-12-10T09:52:04;94163.22;;;22.42
24278;BMP280;12394;42.692;23.314;2022-12-10T09:54:33;94160.28;;;22.35
24278;BMP280;12394;42.692;23.314;2022-12-10T09:57:00;94160.81;;;21.43
24278;BMP280;12394;42.692;23.314;2022-12-10T09:59:32;94151.63;;;20.55
24278;BMP280;12394;42.692;23.314;2022-12-10T10:02:19;94139.19;;;21.72
24278;BMP280;12394;42.692;23.314;2022-12-10T10:04:46;94146.56;;;22.86
24278;BMP280;12394;42.692;23.314;2022-12-10T10:07:23;94142.44;;;22.85
24278;BMP280;12394;42.692;23.314;2022-12-10T10:09:51;94142.66;;;23.54
24278;BMP280;12394;42.692;23.314;2022-12-10T10:12:20;94128.84;;;23.22
24278;BMP280;12394;42.692;23.314;2022-12-10T10:14:45;94141.19;;;23.64
24278;BMP280;12394;42.692;23.314;2022-12-10T10:17:16;94141.94;;;23.42
24278;BMP280;12394;42.692;23.314;2022-12-10T10:19:45;94153.34;;;23.32
24278;BMP280;12394;42.692;23.314;2022-12-10T10:22:11;94139.03;;;23.13
24278;BMP280;12394;42.692;23.314;2022-12-10T10:24:43;94116.66;;;22.27
24278;BMP280;12394;42.692;23.314;2022-12-10T10:27:21;94108.44;;;22.36
24278;BMP280;12394;42.692;23.314;2022-12-10T10:29:50;94118.44;;;22.85
24278;BMP280;12394;42.692;23.314;2022-12-10T10:32:21;94105.84;;;23.02
24278;BMP280;12394;42.692;23.314;2022-12-10T10:34:53;94100.22;;;23.34
24278;BMP280;12394;42.692;23.314;2022-12-10T10:39:48;94082.31;;;23.98
24278;BMP280;12394;42.692;23.314;2022-12-10T10:42:21;94080.69;;;24.65
24278;BMP280;12394;42.692;23.314;2022-12-10T10:44:49;94088.09;;;24.02
24278;BMP280;12394;42.692;23.314;2022-12-10T10:47:27;94097.81;;;23.99
24278;BMP280;12394;42.692;23.314;2022-12-10T10:49:54;94089.34;;;22.98
24278;BMP280;12394;42.692;23.314;2022-12-10T10:52:20;94075.25;;;23.03
24278;BMP280;12394;42.692;23.314;2022-12-10T10:54:47;94087.63;;;23.18
24278;BMP280;12394;42.692;23.314;2022-12-10T10:59:42;94067.78;;;22.80
24278;BMP280;12394;42.692;23.314;2022-12-10T11:02:38;94065.97;;;21.93
24278;BMP280;12394;42.692;23.314;2022-12-10T11:05:20;94062.84;;;21.47
24278;BMP280;12394;42.692;23.314;2022-12-10T11:07:47;94064.94;;;20.89
24278;BMP280;12394;42.692;23.314;2022-12-10T11:12:44;94060.00;;;19.99
24278;BMP280;12394;42.692;23.314;2022-12-10T11:17:53;94025.78;;;19.40
24278;BMP280;12394;42.692;23.314;2022-12-10T11:20:22;94014.38;;;19.14
24278;BMP280;12394;42.692;23.314;2022-12-10T11:22:56;94008.97;;;19.23
24278;BMP280;12394;42.692;23.314;2022-12-10T11:30:40;93990.59;;;18.50
24278;BMP280;12394;42.692;23.314;2022-12-10T11:35:57;93998.00;;;18.31
24278;BMP280;12394;42.692;23.314;2022-12-10T11:52:20;94002.16;;;18.03
24278;BMP280;12394;42.692;23.314;2022-12-10T11:55:02;93981.31;;;17.81
24278;BMP280;12394;42.692;23.314;2022-12-10T11:58:25;93988.53;;;17.81
24278;BMP280;12394;42.692;23.314;2022-12-10T12:03:38;93970.22;;;17.53
24278;BMP280;12394;42.692;23.314;2022-12-10T12:08:47;93985.94;;;17.33
24278;BMP280;12394;42.692;23.314;2022-12-10T12:11:46;93983.66;;;17.26
24278;BMP280;12394;42.692;23.314;2022-12-10T12:14:25;93951.94;;;17.02
24278;BMP280;12394;42.692;23.314;2022-12-10T12:17:07;93949.25;;;17.11
24278;BMP280;12394;42.692;23.314;2022-12-10T12:19:56;93948.19;;;16.94
24278;BMP280;12394;42.692;23.314;2022-12-10T12:22:26;93950.25;;;16.66
24278;BMP280;12394;42.692;23.314;2022-12-10T12:25:08;93928.38;;;16.33
24278;BMP280;12394;42.692;23.314;2022-12-10T12:27:41;93916.72;;;16.16
24278;BMP280;12394;42.692;23.314;2022-12-10T12:32:45;93939.75;;;16.48
24278;BMP280;12394;42.692;23.314;2022-12-10T12:35:23;93916.56;;;16.52
24278;BMP280;12394;42.692;23.314;2022-12-10T12:37:58;93911.91;;;16.47
24278;BMP280;12394;42.692;23.314;2022-12-10T12:40:29;93914.16;;;16.39
24278;BMP280;12394;42.692;23.314;2022-12-10T12:43:03;93904.81;;;16.29
24278;BMP280;12394;42.692;23.314;2022-12-10T12:45:52;93907.59;;;16.26
24278;BMP280;12394;42.692;23.314;2022-12-10T12:51:01;93899.69;;;16.26
24278;BMP280;12394;42.692;23.314;2022-12-10T12:53:28;93894.50;;;16.08
24278;BMP280;12394;42.692;23.314;2022-12-10T12:58:57;93896.03;;;16.23
24278;BMP280;12394;42.692;23.314;2022-12-10T13:04:14;93887.63;;;16.01
24278;BMP280;12394;42.692;23.314;2022-12-10T13:06:40;93889.81;;;16.02
24278;BMP280;12394;42.692;23.314;2022-12-10T13:11:46;93870.53;;;15.87
24278;BMP280;12394;42.692;23.314;2022-12-10T13:14:36;93878.03;;;15.80
24278;BMP280;12394;42.692;23.314;2022-12-10T13:20:28;93884.34;;;15.73
24278;BMP280;12394;42.692;23.314;2022-12-10T13:23:04;93864.00;;;15.65
24278;BMP280;12394;42.692;23.314;2022-12-10T13:28:21;93872.47;;;15.69
24278;BMP280;12394;42.692;23.314;2022-12-10T13:31:16;93860.34;;;15.62
24278;BMP280;12394;42.692;23.314;2022-12-10T13:39:36;93848.94;;;15.56
24278;BMP280;12394;42.692;23.314;2022-12-10T13:50:02;93841.03;;;15.47
24278;BMP280;12394;42.692;23.314;2022-12-10T13:52:45;93831.66;;;15.55
24278;BMP280;12394;42.692;23.314;2022-12-10T13:58:45;93842.03;;;15.58
24278;BMP280;12394;42.692;23.314;2022-12-10T14:08:19;93826.38;;;15.46
24278;BMP280;12394;42.692;23.314;2022-12-10T14:10:46;93822.47;;;15.32
24278;BMP280;12394;42.692;23.314;2022-12-10T14:13:15;93826.69;;;15.39
24278;BMP280;12394;42.692;23.314;2022-12-10T14:15:51;93831.81;;;15.42
24278;BMP280;12394;42.692;23.314;2022-12-10T14:18:18;93811.34;;;15.28
24278;BMP280;12394;42.692;23.314;2022-12-10T14:20:46;93820.59;;;15.14
24278;BMP280;12394;42.692;23.314;2022-12-10T14:23:25;93813.88;;;15.04
24278;BMP280;12394;42.692;23.314;2022-12-10T14:26:13;93801.25;;;15.18
24278;BMP280;12394;42.692;23.314;2022-12-10T14:28:49;93799.78;;;15.35
24278;BMP280;12394;42.692;23.314;2022-12-10T14:31:42;93807.44;;;15.14
24278;BMP280;12394;42.692;23.314;2022-12-10T14:34:13;93799.69;;;15.02
24278;BMP280;12394;42.692;23.314;2022-12-10T14:36:46;93786.69;;;14.89
24278;BMP280;12394;42.692;23.314;2022-12-10T14:39:19;93791.06;;;14.92
24278;BMP280;12394;42.692;23.314;2022-12-10T14:41:47;93779.22;;;14.88
24278;BMP280;12394;42.692;23.314;2022-12-10T14:44:15;93777.19;;;14.83
24278;BMP280;12394;42.692;23.314;2022-12-10T14:46:41;93771.19;;;14.82
24278;BMP280;12394;42.692;23.314;2022-12-10T14:49:13;93768.28;;;14.80
24278;BMP280;12394;42.692;23.314;2022-12-10T14:51:40;93775.13;;;14.78
24278;BMP280;12394;42.692;23.314;2022-12-10T14:54:23;93780.25;;;14.72
24278;BMP280;12394;42.692;23.314;2022-12-10T14:56:49;93774.88;;;14.66
24278;BMP280;12394;42.692;23.314;2022-12-10T14:59:38;93785.69;;;14.59
24278;BMP280;12394;42.692;23.314;2022-12-10T15:26:49;93775.56;;;14.31
24278;BMP280;12394;42.692;23.314;2022-12-10T15:29:29;93757.44;;;14.23
24278;BMP280;12394;42.692;23.314;2022-12-10T15:34:26;93759.63;;;14.25
24278;BMP280;12394;42.692;23.314;2022-12-10T15:36:56;93763.28;;;14.27
24278;BMP280;12394;42.692;23.314;2022-12-10T15:39:28;93763.16;;;14.40
24278;BMP280;12394;42.692;23.314;2022-12-10T15:42:04;93749.25;;;14.31
24278;BMP280;12394;42.692;23.314;2022-12-10T15:49:41;93744.88;;;14.37
24278;BMP280;12394;42.692;23.314;2022-12-10T15:52:11;93759.63;;;14.25
24278;BMP280;12394;42.692;23.314;2022-12-10T15:54:39;93746.00;;;14.17
24278;BMP280;12394;42.692;23.314;2022-12-10T15:57:16;93745.00;;;14.15
24278;BMP280;12394;42.692;23.314;2022-12-10T15:59:43;93745.00;;;14.24
24278;BMP280;12394;42.692;23.314;2022-12-10T16:02:47;93736.38;;;14.14
24278;BMP280;12394;42.692;23.314;2022-12-10T16:05:15;93738.41;;;14.10
24278;BMP280;12394;42.692;23.314;2022-12-10T16:07:41;93746.31;;;14.10
24278;BMP280;12394;42.692;23.314;2022-12-10T16:10:09;93738.41;;;14.01
24278;BMP280;12394;42.692;23.314;2022-12-10T16:12:49;93738.41;;;14.01
24278;BMP280;12394;42.692;23.314;2022-12-10T16:15:18;93734.88;;;13.95
24278;BMP280;12394;42.692;23.314;2022-12-10T16:17:45;93722.63;;;13.92
24278;BMP280;12394;42.692;23.314;2022-12-10T16:20:25;93703.47;;;13.82
24278;BMP280;12394;42.692;23.314;2022-12-10T16:22:52;93706.25;;;13.79
24278;BMP280;12394;42.692;23.314;2022-12-10T16:25:18;93708.44;;;13.80
24278;BMP280;12394;42.692;23.314;2022-12-10T16:27:44;93709.72;;;13.67
24278;BMP280;12394;42.692;23.314;2022-12-10T16:30:18;93715.69;;;13.67